Terminal Aerodrome Forecast
Issued by NWS Wilmington, OH

Current Version | Previous Version | Graphics & Text | Print | Product List | Glossary On
Versions: 1 2 3 4 5 6 7 8 9 10 11 12 13 14 15 16 17 18 19 20 21 22 23 24 25 26 27 28 29 30 31
959
FTUS41 KILN 221453 AAA
TAFCVG
TAF AMD
KCVG 221453Z 2215/2318 05010KT P6SM OVC011
     FM230100 09007KT 5SM BR OVC007
     FM230700 13008KT 4SM -SHRA BR OVC005
     FM231300 19010KT 5SM -SHRA BR BKN008 OVC030=

USA.gov is the U.S. government's official web portal to all federal, state and local government web resources and services.